sensor_id;sensor_type;location;lat;lon;timestamp;P1;durP1;ratioP1;P2;durP2;ratioP2
26822;SDS011;14852;51.910;8.878;2024-03-08T00:01:09;20.17;;;12.98;;
26822;SDS011;14852;51.910;8.878;2024-03-08T00:03:35;18.92;;;13.48;;
26822;SDS011;14852;51.910;8.878;2024-03-08T00:06:01;19.60;;;12.60;;
26822;SDS011;14852;51.910;8.878;2024-03-08T00:08:27;21.50;;;13.32;;
26822;SDS011;14852;51.910;8.878;2024-03-08T00:10:53;19.10;;;13.35;;
26822;SDS011;14852;51.910;8.878;2024-03-08T00:13:19;17.35;;;12.20;;
26822;SDS011;14852;51.910;8.878;2024-03-08T00:15:44;16.40;;;12.73;;
26822;SDS011;14852;51.910;8.878;2024-03-08T00:18:10;19.20;;;13.40;;
26822;SDS011;14852;51.910;8.878;2024-03-08T00:20:36;21.08;;;12.63;;
26822;SDS011;14852;51.910;8.878;2024-03-08T00:23:02;17.48;;;12.38;;
26822;SDS011;14852;51.910;8.878;2024-03-08T00:25:28;17.17;;;13.02;;
26822;SDS011;14852;51.910;8.878;2024-03-08T00:27:54;16.77;;;12.77;;
26822;SDS011;14852;51.910;8.878;2024-03-08T00:30:23;16.80;;;11.93;;
26822;SDS011;14852;51.910;8.878;2024-03-08T00:32:50;18.33;;;12.50;;
26822;SDS011;14852;51.910;8.878;2024-03-08T00:35:16;17.05;;;11.93;;
26822;SDS011;14852;51.910;8.878;2024-03-08T00:37:41;15.23;;;10.65;;
26822;SDS011;14852;51.910;8.878;2024-03-08T00:40:07;14.23;;;10.38;;
26822;SDS011;14852;51.910;8.878;2024-03-08T00:42:36;17.70;;;12.40;;
26822;SDS011;14852;51.910;8.878;2024-03-08T00:45:03;19.73;;;12.45;;
26822;SDS011;14852;51.910;8.878;2024-03-08T00:47:29;18.17;;;14.20;;
26822;SDS011;14852;51.910;8.878;2024-03-08T00:49:55;19.73;;;11.70;;
26822;SDS011;14852;51.910;8.878;2024-03-08T00:52:21;16.92;;;11.73;;
26822;SDS011;14852;51.910;8.878;2024-03-08T00:54:49;16.70;;;12.20;;
26822;SDS011;14852;51.910;8.878;2024-03-08T00:57:15;17.63;;;13.13;;
26822;SDS011;14852;51.910;8.878;2024-03-08T00:59:41;15.23;;;11.57;;
26822;SDS011;14852;51.910;8.878;2024-03-08T01:02:06;17.45;;;11.27;;
26822;SDS011;14852;51.910;8.878;2024-03-08T01:04:34;19.75;;;12.05;;
26822;SDS011;14852;51.910;8.878;2024-03-08T01:07:00;18.27;;;13.65;;
26822;SDS011;14852;51.910;8.878;2024-03-08T01:09:26;16.95;;;13.65;;
26822;SDS011;14852;51.910;8.878;2024-03-08T01:11:52;19.10;;;14.70;;
26822;SDS011;14852;51.910;8.878;2024-03-08T01:14:19;21.70;;;14.20;;
26822;SDS011;14852;51.910;8.878;2024-03-08T01:16:49;17.73;;;12.10;;
26822;SDS011;14852;51.910;8.878;2024-03-08T01:19:15;17.58;;;12.70;;
26822;SDS011;14852;51.910;8.878;2024-03-08T01:21:41;20.33;;;13.18;;
26822;SDS011;14852;51.910;8.878;2024-03-08T01:24:07;13.85;;;11.30;;
26822;SDS011;14852;51.910;8.878;2024-03-08T01:26:33;16.52;;;12.43;;
26822;SDS011;14852;51.910;8.878;2024-03-08T01:29:01;17.58;;;12.90;;
26822;SDS011;14852;51.910;8.878;2024-03-08T01:31:28;17.38;;;12.10;;
26822;SDS011;14852;51.910;8.878;2024-03-08T01:33:55;16.60;;;12.50;;
26822;SDS011;14852;51.910;8.878;2024-03-08T01:36:22;18.50;;;13.63;;
26822;SDS011;14852;51.910;8.878;2024-03-08T01:38:48;17.90;;;13.80;;
26822;SDS011;14852;51.910;8.878;2024-03-08T01:41:14;18.35;;;12.85;;
26822;SDS011;14852;51.910;8.878;2024-03-08T01:43:42;23.60;;;15.48;;
26822;SDS011;14852;51.910;8.878;2024-03-08T01:46:08;17.02;;;13.07;;
26822;SDS011;14852;51.910;8.878;2024-03-08T01:48:36;16.85;;;11.77;;
26822;SDS011;14852;51.910;8.878;2024-03-08T01:51:02;18.60;;;12.77;;
26822;SDS011;14852;51.910;8.878;2024-03-08T01:53:29;17.38;;;12.38;;
26822;SDS011;14852;51.910;8.878;2024-03-08T01:55:56;17.00;;;12.50;;
26822;SDS011;14852;51.910;8.878;2024-03-08T01:58:23;14.88;;;11.45;;
26822;SDS011;14852;51.910;8.878;2024-03-08T02:00:53;17.05;;;11.65;;
26822;SDS011;14852;51.910;8.878;2024-03-08T02:03:21;17.88;;;13.07;;
26822;SDS011;14852;51.910;8.878;2024-03-08T02:05:47;17.23;;;12.32;;
26822;SDS011;14852;51.910;8.878;2024-03-08T02:08:14;20.02;;;13.80;;
26822;SDS011;14852;51.910;8.878;2024-03-08T02:10:41;20.45;;;14.90;;
26822;SDS011;14852;51.910;8.878;2024-03-08T02:13:11;20.83;;;14.45;;
26822;SDS011;14852;51.910;8.878;2024-03-08T02:15:56;21.20;;;13.20;;
26822;SDS011;14852;51.910;8.878;2024-03-08T02:18:24;18.35;;;12.85;;
26822;SDS011;14852;51.910;8.878;2024-03-08T02:20:57;19.10;;;13.50;;
26822;SDS011;14852;51.910;8.878;2024-03-08T02:23:24;19.88;;;14.02;;
26822;SDS011;14852;51.910;8.878;2024-03-08T02:25:52;21.55;;;13.25;;
26822;SDS011;14852;51.910;8.878;2024-03-08T02:28:20;22.17;;;14.95;;
26822;SDS011;14852;51.910;8.878;2024-03-08T02:30:49;20.23;;;14.05;;
26822;SDS011;14852;51.910;8.878;2024-03-08T02:33:16;21.40;;;12.80;;
26822;SDS011;14852;51.910;8.878;2024-03-08T02:35:46;19.75;;;13.48;;
26822;SDS011;14852;51.910;8.878;2024-03-08T02:38:14;19.40;;;13.55;;
26822;SDS011;14852;51.910;8.878;2024-03-08T02:40:42;17.48;;;13.60;;
26822;SDS011;14852;51.910;8.878;2024-03-08T02:43:08;19.15;;;13.57;;
26822;SDS011;14852;51.910;8.878;2024-03-08T02:45:35;20.65;;;14.30;;
26822;SDS011;14852;51.910;8.878;2024-03-08T02:48:01;21.63;;;14.35;;
26822;SDS011;14852;51.910;8.878;2024-03-08T02:50:28;17.77;;;13.73;;
26822;SDS011;14852;51.910;8.878;2024-03-08T02:52:54;20.05;;;15.10;;
26822;SDS011;14852;51.910;8.878;2024-03-08T02:55:19;18.95;;;14.25;;
26822;SDS011;14852;51.910;8.878;2024-03-08T02:57:45;25.30;;;18.23;;
26822;SDS011;14852;51.910;8.878;2024-03-08T03:00:14;22.45;;;16.42;;
26822;SDS011;14852;51.910;8.878;2024-03-08T03:02:40;20.00;;;14.73;;
26822;SDS011;14852;51.910;8.878;2024-03-08T03:05:07;18.80;;;13.40;;
26822;SDS011;14852;51.910;8.878;2024-03-08T03:07:35;21.98;;;14.23;;
26822;SDS011;14852;51.910;8.878;2024-03-08T03:10:01;20.55;;;13.43;;
26822;SDS011;14852;51.910;8.878;2024-03-08T03:12:27;17.95;;;13.77;;
26822;SDS011;14852;51.910;8.878;2024-03-08T03:14:53;20.38;;;14.95;;
26822;SDS011;14852;51.910;8.878;2024-03-08T03:17:19;22.15;;;14.40;;
26822;SDS011;14852;51.910;8.878;2024-03-08T03:19:45;20.63;;;13.57;;
26822;SDS011;14852;51.910;8.878;2024-03-08T03:22:13;21.48;;;14.05;;
26822;SDS011;14852;51.910;8.878;2024-03-08T03:24:40;18.42;;;13.57;;
26822;SDS011;14852;51.910;8.878;2024-03-08T03:27:07;19.90;;;12.27;;
26822;SDS011;14852;51.910;8.878;2024-03-08T03:29:36;14.93;;;12.50;;
26822;SDS011;14852;51.910;8.878;2024-03-08T03:32:07;20.85;;;13.20;;
26822;SDS011;14852;51.910;8.878;2024-03-08T03:34:34;18.83;;;14.32;;
26822;SDS011;14852;51.910;8.878;2024-03-08T03:37:03;19.25;;;14.38;;
26822;SDS011;14852;51.910;8.878;2024-03-08T03:39:30;17.77;;;12.90;;
26822;SDS011;14852;51.910;8.878;2024-03-08T03:44:40;19.30;;;11.77;;
26822;SDS011;14852;51.910;8.878;2024-03-08T03:47:06;19.08;;;13.48;;
26822;SDS011;14852;51.910;8.878;2024-03-08T03:49:32;22.85;;;12.80;;
26822;SDS011;14852;51.910;8.878;2024-03-08T03:51:58;20.73;;;13.77;;
26822;SDS011;14852;51.910;8.878;2024-03-08T03:54:24;18.13;;;13.32;;
26822;SDS011;14852;51.910;8.878;2024-03-08T03:56:49;20.27;;;13.98;;
26822;SDS011;14852;51.910;8.878;2024-03-08T03:59:18;20.10;;;14.02;;
26822;SDS011;14852;51.910;8.878;2024-03-08T04:01:44;19.63;;;13.65;;
26822;SDS011;14852;51.910;8.878;2024-03-08T04:04:10;21.35;;;13.48;;
26822;SDS011;14852;51.910;8.878;2024-03-08T04:06:37;19.17;;;12.57;;
26822;SDS011;14852;51.910;8.878;2024-03-08T04:09:03;22.35;;;15.13;;
26822;SDS011;14852;51.910;8.878;2024-03-08T04:11:29;21.98;;;14.23;;
26822;SDS011;14852;51.910;8.878;2024-03-08T04:13:55;20.52;;;14.70;;
26822;SDS011;14852;51.910;8.878;2024-03-08T04:16:21;22.67;;;14.27;;
26822;SDS011;14852;51.910;8.878;2024-03-08T04:18:47;20.23;;;13.23;;
26822;SDS011;14852;51.910;8.878;2024-03-08T04:21:13;19.90;;;13.50;;
26822;SDS011;14852;51.910;8.878;2024-03-08T04:23:38;23.80;;;14.88;;
26822;SDS011;14852;51.910;8.878;2024-03-08T04:26:04;23.50;;;14.75;;
26822;SDS011;14852;51.910;8.878;2024-03-08T04:28:31;17.23;;;12.88;;
26822;SDS011;14852;51.910;8.878;2024-03-08T04:30:57;21.70;;;14.43;;
26822;SDS011;14852;51.910;8.878;2024-03-08T04:33:25;18.70;;;13.82;;
26822;SDS011;14852;51.910;8.878;2024-03-08T04:35:51;21.58;;;14.98;;
26822;SDS011;14852;51.910;8.878;2024-03-08T04:38:18;18.83;;;14.32;;
26822;SDS011;14852;51.910;8.878;2024-03-08T04:40:44;23.95;;;14.25;;
26822;SDS011;14852;51.910;8.878;2024-03-08T04:43:10;20.23;;;14.32;;
26822;SDS011;14852;51.910;8.878;2024-03-08T04:45:36;23.58;;;15.07;;
26822;SDS011;14852;51.910;8.878;2024-03-08T04:48:02;20.70;;;13.40;;
26822;SDS011;14852;51.910;8.878;2024-03-08T04:50:28;21.77;;;13.75;;
26822;SDS011;14852;51.910;8.878;2024-03-08T04:52:54;20.42;;;14.82;;
26822;SDS011;14852;51.910;8.878;2024-03-08T04:55:20;22.25;;;14.23;;
26822;SDS011;14852;51.910;8.878;2024-03-08T04:57:47;22.48;;;14.25;;
26822;SDS011;14852;51.910;8.878;2024-03-08T05:00:13;19.48;;;14.43;;
26822;SDS011;14852;51.910;8.878;2024-03-08T05:02:40;23.23;;;15.02;;
26822;SDS011;14852;51.910;8.878;2024-03-08T05:05:06;24.33;;;15.80;;
26822;SDS011;14852;51.910;8.878;2024-03-08T05:07:36;17.20;;;13.30;;
26822;SDS011;14852;51.910;8.878;2024-03-08T05:10:02;19.60;;;13.85;;
26822;SDS011;14852;51.910;8.878;2024-03-08T05:12:28;21.05;;;14.80;;
26822;SDS011;14852;51.910;8.878;2024-03-08T05:14:54;21.02;;;13.65;;
26822;SDS011;14852;51.910;8.878;2024-03-08T05:17:20;21.45;;;15.30;;
26822;SDS011;14852;51.910;8.878;2024-03-08T05:19:46;20.30;;;14.55;;
26822;SDS011;14852;51.910;8.878;2024-03-08T05:22:12;24.38;;;14.70;;
26822;SDS011;14852;51.910;8.878;2024-03-08T05:24:38;20.02;;;14.23;;
26822;SDS011;14852;51.910;8.878;2024-03-08T05:27:04;22.70;;;13.93;;
26822;SDS011;14852;51.910;8.878;2024-03-08T05:29:30;20.40;;;14.55;;
26822;SDS011;14852;51.910;8.878;2024-03-08T05:31:55;20.10;;;14.02;;
26822;SDS011;14852;51.910;8.878;2024-03-08T05:34:22;23.35;;;15.80;;
26822;SDS011;14852;51.910;8.878;2024-03-08T05:36:49;20.58;;;13.90;;
26822;SDS011;14852;51.910;8.878;2024-03-08T05:39:16;22.35;;;14.82;;
26822;SDS011;14852;51.910;8.878;2024-03-08T05:41:42;21.58;;;15.00;;
26822;SDS011;14852;51.910;8.878;2024-03-08T05:44:09;23.25;;;15.80;;
26822;SDS011;14852;51.910;8.878;2024-03-08T05:46:36;19.98;;;14.75;;
26822;SDS011;14852;51.910;8.878;2024-03-08T05:49:02;22.65;;;14.95;;
26822;SDS011;14852;51.910;8.878;2024-03-08T05:51:32;20.65;;;14.85;;
26822;SDS011;14852;51.910;8.878;2024-03-08T05:54:01;21.30;;;14.70;;
26822;SDS011;14852;51.910;8.878;2024-03-08T05:56:29;23.65;;;14.80;;
26822;SDS011;14852;51.910;8.878;2024-03-08T05:58:55;27.45;;;16.85;;
26822;SDS011;14852;51.910;8.878;2024-03-08T06:01:21;22.92;;;15.93;;
26822;SDS011;14852;51.910;8.878;2024-03-08T06:03:47;22.33;;;15.48;;
26822;SDS011;14852;51.910;8.878;2024-03-08T06:06:14;27.23;;;16.38;;
26822;SDS011;14852;51.910;8.878;2024-03-08T06:08:40;23.33;;;15.38;;
26822;SDS011;14852;51.910;8.878;2024-03-08T06:11:08;23.15;;;15.43;;
26822;SDS011;14852;51.910;8.878;2024-03-08T06:13:35;24.48;;;17.08;;
26822;SDS011;14852;51.910;8.878;2024-03-08T06:16:01;21.60;;;13.93;;
26822;SDS011;14852;51.910;8.878;2024-03-08T06:18:30;24.30;;;16.55;;
26822;SDS011;14852;51.910;8.878;2024-03-08T06:20:56;25.25;;;16.45;;
26822;SDS011;14852;51.910;8.878;2024-03-08T06:23:22;27.52;;;16.85;;
26822;SDS011;14852;51.910;8.878;2024-03-08T06:25:48;27.80;;;17.40;;
26822;SDS011;14852;51.910;8.878;2024-03-08T06:28:17;24.17;;;16.13;;
26822;SDS011;14852;51.910;8.878;2024-03-08T06:30:42;22.75;;;15.15;;
26822;SDS011;14852;51.910;8.878;2024-03-08T06:33:08;25.90;;;15.25;;
26822;SDS011;14852;51.910;8.878;2024-03-08T06:35:35;24.45;;;16.40;;
26822;SDS011;14852;51.910;8.878;2024-03-08T06:38:03;24.88;;;14.98;;
26822;SDS011;14852;51.910;8.878;2024-03-08T06:40:29;22.27;;;15.35;;
26822;SDS011;14852;51.910;8.878;2024-03-08T06:42:55;32.22;;;16.55;;
26822;SDS011;14852;51.910;8.878;2024-03-08T06:45:21;21.27;;;14.43;;
26822;SDS011;14852;51.910;8.878;2024-03-08T06:47:48;22.20;;;15.90;;
26822;SDS011;14852;51.910;8.878;2024-03-08T06:50:14;21.48;;;14.10;;
26822;SDS011;14852;51.910;8.878;2024-03-08T06:52:41;22.88;;;15.43;;
26822;SDS011;14852;51.910;8.878;2024-03-08T06:55:11;21.20;;;15.52;;
26822;SDS011;14852;51.910;8.878;2024-03-08T06:57:38;22.95;;;15.23;;
26822;SDS011;14852;51.910;8.878;2024-03-08T07:00:08;24.10;;;16.27;;
26822;SDS011;14852;51.910;8.878;2024-03-08T07:02:36;25.17;;;18.95;;
26822;SDS011;14852;51.910;8.878;2024-03-08T07:05:02;22.10;;;14.98;;
26822;SDS011;14852;51.910;8.878;2024-03-08T07:07:29;21.50;;;16.63;;
26822;SDS011;14852;51.910;8.878;2024-03-08T07:09:56;26.00;;;17.95;;
26822;SDS011;14852;51.910;8.878;2024-03-08T07:12:22;27.73;;;18.70;;
26822;SDS011;14852;51.910;8.878;2024-03-08T07:14:48;25.98;;;19.13;;
26822;SDS011;14852;51.910;8.878;2024-03-08T07:17:14;24.77;;;18.48;;
26822;SDS011;14852;51.910;8.878;2024-03-08T07:19:41;25.27;;;17.40;;
26822;SDS011;14852;51.910;8.878;2024-03-08T07:22:07;26.17;;;18.38;;
26822;SDS011;14852;51.910;8.878;2024-03-08T07:24:34;26.95;;;20.38;;
26822;SDS011;14852;51.910;8.878;2024-03-08T07:27:26;28.55;;;19.33;;
26822;SDS011;14852;51.910;8.878;2024-03-08T07:29:52;26.70;;;19.02;;
26822;SDS011;14852;51.910;8.878;2024-03-08T07:32:17;26.33;;;20.50;;
26822;SDS011;14852;51.910;8.878;2024-03-08T07:34:47;28.05;;;20.45;;
26822;SDS011;14852;51.910;8.878;2024-03-08T07:37:15;24.35;;;18.80;;
26822;SDS011;14852;51.910;8.878;2024-03-08T07:39:42;24.50;;;19.50;;
26822;SDS011;14852;51.910;8.878;2024-03-08T07:42:08;28.73;;;21.45;;
26822;SDS011;14852;51.910;8.878;2024-03-08T07:44:36;26.38;;;19.30;;
26822;SDS011;14852;51.910;8.878;2024-03-08T07:47:02;26.92;;;19.42;;
26822;SDS011;14852;51.910;8.878;2024-03-08T07:49:28;25.15;;;19.10;;
26822;SDS011;14852;51.910;8.878;2024-03-08T07:51:55;27.38;;;19.55;;
26822;SDS011;14852;51.910;8.878;2024-03-08T07:54:21;25.73;;;19.25;;
26822;SDS011;14852;51.910;8.878;2024-03-08T07:56:47;22.75;;;18.20;;
26822;SDS011;14852;51.910;8.878;2024-03-08T07:59:13;26.77;;;20.15;;
26822;SDS011;14852;51.910;8.878;2024-03-08T08:01:39;25.13;;;20.02;;
26822;SDS011;14852;51.910;8.878;2024-03-08T08:04:05;24.73;;;20.33;;
26822;SDS011;14852;51.910;8.878;2024-03-08T08:06:31;26.15;;;20.52;;
26822;SDS011;14852;51.910;8.878;2024-03-08T08:08:58;24.90;;;19.42;;
26822;SDS011;14852;51.910;8.878;2024-03-08T08:11:27;28.27;;;21.20;;
26822;SDS011;14852;51.910;8.878;2024-03-08T08:13:53;26.13;;;21.02;;
26822;SDS011;14852;51.910;8.878;2024-03-08T08:16:20;26.85;;;21.42;;
26822;SDS011;14852;51.910;8.878;2024-03-08T08:18:48;23.73;;;19.98;;
26822;SDS011;14852;51.910;8.878;2024-03-08T08:21:15;27.60;;;20.55;;
26822;SDS011;14852;51.910;8.878;2024-03-08T08:23:40;28.52;;;21.73;;
26822;SDS011;14852;51.910;8.878;2024-03-08T08:26:06;24.70;;;20.35;;
26822;SDS011;14852;51.910;8.878;2024-03-08T08:28:32;25.30;;;20.55;;
26822;SDS011;14852;51.910;8.878;2024-03-08T08:30:58;28.08;;;20.48;;
26822;SDS011;14852;51.910;8.878;2024-03-08T08:33:24;23.90;;;19.15;;
26822;SDS011;14852;51.910;8.878;2024-03-08T08:35:50;24.85;;;20.38;;
26822;SDS011;14852;51.910;8.878;2024-03-08T08:38:19;23.98;;;20.58;;
26822;SDS011;14852;51.910;8.878;2024-03-08T08:40:45;25.95;;;20.88;;
26822;SDS011;14852;51.910;8.878;2024-03-08T08:43:12;25.23;;;21.10;;
26822;SDS011;14852;51.910;8.878;2024-03-08T08:45:39;23.27;;;20.10;;
26822;SDS011;14852;51.910;8.878;2024-03-08T08:48:05;23.20;;;20.05;;
26822;SDS011;14852;51.910;8.878;2024-03-08T08:50:31;24.83;;;19.13;;
26822;SDS011;14852;51.910;8.878;2024-03-08T08:52:57;25.27;;;20.25;;
26822;SDS011;14852;51.910;8.878;2024-03-08T08:55:23;19.83;;;17.35;;
26822;SDS011;14852;51.910;8.878;2024-03-08T08:57:52;26.10;;;19.17;;
26822;SDS011;14852;51.910;8.878;2024-03-08T09:00:19;22.23;;;19.30;;
26822;SDS011;14852;51.910;8.878;2024-03-08T09:02:45;23.17;;;19.25;;
26822;SDS011;14852;51.910;8.878;2024-03-08T09:05:12;19.58;;;16.77;;
26822;SDS011;14852;51.910;8.878;2024-03-08T09:07:41;25.13;;;20.67;;
26822;SDS011;14852;51.910;8.878;2024-03-08T09:10:09;24.45;;;19.83;;
26822;SDS011;14852;51.910;8.878;2024-03-08T09:12:40;24.85;;;20.70;;
26822;SDS011;14852;51.910;8.878;2024-03-08T09:15:06;19.98;;;17.27;;
26822;SDS011;14852;51.910;8.878;2024-03-08T09:17:35;22.92;;;19.33;;
26822;SDS011;14852;51.910;8.878;2024-03-08T09:20:05;25.10;;;19.05;;
26822;SDS011;14852;51.910;8.878;2024-03-08T09:22:32;24.92;;;19.85;;
26822;SDS011;14852;51.910;8.878;2024-03-08T09:24:57;26.10;;;19.75;;
26822;SDS011;14852;51.910;8.878;2024-03-08T09:27:23;20.70;;;17.83;;
26822;SDS011;14852;51.910;8.878;2024-03-08T09:29:49;22.52;;;17.10;;
26822;SDS011;14852;51.910;8.878;2024-03-08T09:32:15;23.13;;;18.77;;
26822;SDS011;14852;51.910;8.878;2024-03-08T09:34:41;24.50;;;18.27;;
26822;SDS011;14852;51.910;8.878;2024-03-08T09:37:07;22.42;;;17.85;;
26822;SDS011;14852;51.910;8.878;2024-03-08T09:39:34;20.33;;;17.27;;
26822;SDS011;14852;51.910;8.878;2024-03-08T09:42:00;22.42;;;18.27;;
26822;SDS011;14852;51.910;8.878;2024-03-08T09:44:27;21.63;;;17.40;;
26822;SDS011;14852;51.910;8.878;2024-03-08T09:46:54;22.85;;;19.08;;
26822;SDS011;14852;51.910;8.878;2024-03-08T09:49:20;22.15;;;17.40;;
26822;SDS011;14852;51.910;8.878;2024-03-08T09:51:46;22.65;;;18.20;;
26822;SDS011;14852;51.910;8.878;2024-03-08T09:54:14;19.58;;;16.50;;
26822;SDS011;14852;51.910;8.878;2024-03-08T09:56:42;22.13;;;17.48;;
26822;SDS011;14852;51.910;8.878;2024-03-08T09:59:10;20.75;;;17.58;;
26822;SDS011;14852;51.910;8.878;2024-03-08T10:02:01;22.38;;;17.77;;
26822;SDS011;14852;51.910;8.878;2024-03-08T10:04:28;19.65;;;15.52;;
26822;SDS011;14852;51.910;8.878;2024-03-08T10:06:57;22.25;;;17.98;;
26822;SDS011;14852;51.910;8.878;2024-03-08T10:09:24;20.80;;;16.48;;
26822;SDS011;14852;51.910;8.878;2024-03-08T10:11:56;19.95;;;16.45;;
26822;SDS011;14852;51.910;8.878;2024-03-08T10:14:23;21.08;;;17.55;;
26822;SDS011;14852;51.910;8.878;2024-03-08T10:16:51;21.27;;;17.83;;
26822;SDS011;14852;51.910;8.878;2024-03-08T10:19:18;25.17;;;19.25;;
26822;SDS011;14852;51.910;8.878;2024-03-08T10:21:51;22.95;;;18.63;;
26822;SDS011;14852;51.910;8.878;2024-03-08T10:24:19;19.67;;;16.92;;
26822;SDS011;14852;51.910;8.878;2024-03-08T10:26:45;23.20;;;18.70;;
26822;SDS011;14852;51.910;8.878;2024-03-08T10:29:11;21.80;;;18.45;;
26822;SDS011;14852;51.910;8.878;2024-03-08T10:31:42;24.23;;;18.40;;
26822;SDS011;14852;51.910;8.878;2024-03-08T10:34:12;22.83;;;18.80;;
26822;SDS011;14852;51.910;8.878;2024-03-08T10:36:38;22.83;;;17.98;;
26822;SDS011;14852;51.910;8.878;2024-03-08T10:39:13;21.70;;;17.38;;
26822;SDS011;14852;51.910;8.878;2024-03-08T10:41:52;22.45;;;16.17;;
26822;SDS011;14852;51.910;8.878;2024-03-08T10:47:03;23.27;;;16.92;;
26822;SDS011;14852;51.910;8.878;2024-03-08T10:50:21;23.23;;;17.90;;
26822;SDS011;14852;51.910;8.878;2024-03-08T10:52:50;24.08;;;18.83;;
26822;SDS011;14852;51.910;8.878;2024-03-08T10:55:17;20.30;;;16.98;;
26822;SDS011;14852;51.910;8.878;2024-03-08T10:57:45;22.45;;;16.35;;
26822;SDS011;14852;51.910;8.878;2024-03-08T11:00:14;21.10;;;16.70;;
26822;SDS011;14852;51.910;8.878;2024-03-08T11:02:44;21.80;;;16.98;;
26822;SDS011;14852;51.910;8.878;2024-03-08T11:05:10;18.60;;;14.68;;
26822;SDS011;14852;51.910;8.878;2024-03-08T11:08:15;19.13;;;15.18;;
26822;SDS011;14852;51.910;8.878;2024-03-08T11:10:49;21.27;;;16.50;;
26822;SDS011;14852;51.910;8.878;2024-03-08T11:13:37;22.08;;;17.50;;
26822;SDS011;14852;51.910;8.878;2024-03-08T11:16:12;21.02;;;15.75;;
26822;SDS011;14852;51.910;8.878;2024-03-08T11:18:58;18.92;;;15.23;;
26822;SDS011;14852;51.910;8.878;2024-03-08T11:21:36;20.30;;;17.65;;
26822;SDS011;14852;51.910;8.878;2024-03-08T11:24:08;17.95;;;14.70;;
26822;SDS011;14852;51.910;8.878;2024-03-08T11:26:38;17.15;;;13.10;;
26822;SDS011;14852;51.910;8.878;2024-03-08T11:32:03;20.27;;;14.55;;
26822;SDS011;14852;51.910;8.878;2024-03-08T11:34:47;16.92;;;14.95;;
26822;SDS011;14852;51.910;8.878;2024-03-08T11:37:17;15.05;;;12.13;;
26822;SDS011;14852;51.910;8.878;2024-03-08T11:39:47;18.60;;;13.57;;
26822;SDS011;14852;51.910;8.878;2024-03-08T11:42:19;15.98;;;13.10;;
26822;SDS011;14852;51.910;8.878;2024-03-08T11:44:45;16.52;;;14.05;;
26822;SDS011;14852;51.910;8.878;2024-03-08T11:47:12;16.88;;;12.15;;
26822;SDS011;14852;51.910;8.878;2024-03-08T11:49:39;13.73;;;11.55;;
26822;SDS011;14852;51.910;8.878;2024-03-08T11:52:13;16.90;;;12.60;;
26822;SDS011;14852;51.910;8.878;2024-03-08T11:54:41;17.00;;;13.88;;
26822;SDS011;14852;51.910;8.878;2024-03-08T11:57:08;16.08;;;12.77;;
26822;SDS011;14852;51.910;8.878;2024-03-08T11:59:35;18.17;;;13.65;;
26822;SDS011;14852;51.910;8.878;2024-03-08T12:02:02;16.95;;;13.38;;
26822;SDS011;14852;51.910;8.878;2024-03-08T12:04:30;15.35;;;12.15;;
26822;SDS011;14852;51.910;8.878;2024-03-08T12:06:58;16.42;;;12.90;;
26822;SDS011;14852;51.910;8.878;2024-03-08T12:09:34;19.60;;;14.27;;
26822;SDS011;14852;51.910;8.878;2024-03-08T12:12:01;16.27;;;12.70;;
26822;SDS011;14852;51.910;8.878;2024-03-08T12:14:29;17.33;;;14.45;;
26822;SDS011;14852;51.910;8.878;2024-03-08T12:16:57;15.95;;;12.30;;
26822;SDS011;14852;51.910;8.878;2024-03-08T12:19:23;17.15;;;14.00;;
26822;SDS011;14852;51.910;8.878;2024-03-08T12:21:49;16.83;;;13.85;;
26822;SDS011;14852;51.910;8.878;2024-03-08T12:24:15;15.15;;;13.13;;
26822;SDS011;14852;51.910;8.878;2024-03-08T12:26:46;15.10;;;11.60;;
26822;SDS011;14852;51.910;8.878;2024-03-08T12:31:54;16.08;;;12.48;;
26822;SDS011;14852;51.910;8.878;2024-03-08T12:34:23;19.10;;;14.48;;
26822;SDS011;14852;51.910;8.878;2024-03-08T12:36:49;18.63;;;13.73;;
26822;SDS011;14852;51.910;8.878;2024-03-08T12:39:18;14.63;;;11.52;;
26822;SDS011;14852;51.910;8.878;2024-03-08T12:41:51;18.52;;;14.63;;
26822;SDS011;14852;51.910;8.878;2024-03-08T12:44:24;16.92;;;13.63;;
26822;SDS011;14852;51.910;8.878;2024-03-08T12:46:51;17.45;;;13.77;;
26822;SDS011;14852;51.910;8.878;2024-03-08T12:49:18;17.20;;;13.93;;
26822;SDS011;14852;51.910;8.878;2024-03-08T12:51:47;19.83;;;14.70;;
26822;SDS011;14852;51.910;8.878;2024-03-08T12:54:13;19.30;;;14.20;;
26822;SDS011;14852;51.910;8.878;2024-03-08T12:56:39;19.08;;;15.52;;
26822;SDS011;14852;51.910;8.878;2024-03-08T12:59:06;17.60;;;13.50;;
26822;SDS011;14852;51.910;8.878;2024-03-08T13:01:33;19.45;;;15.75;;
26822;SDS011;14852;51.910;8.878;2024-03-08T13:04:02;19.10;;;15.23;;
26822;SDS011;14852;51.910;8.878;2024-03-08T13:06:31;16.90;;;13.15;;
26822;SDS011;14852;51.910;8.878;2024-03-08T13:08:57;16.05;;;13.48;;
26822;SDS011;14852;51.910;8.878;2024-03-08T13:11:24;16.65;;;14.25;;
26822;SDS011;14852;51.910;8.878;2024-03-08T13:13:50;20.60;;;15.48;;
26822;SDS011;14852;51.910;8.878;2024-03-08T13:16:17;18.95;;;15.25;;
26822;SDS011;14852;51.910;8.878;2024-03-08T13:18:44;21.15;;;16.50;;
26822;SDS011;14852;51.910;8.878;2024-03-08T13:21:14;20.80;;;15.27;;
26822;SDS011;14852;51.910;8.878;2024-03-08T13:23:43;22.92;;;18.10;;
26822;SDS011;14852;51.910;8.878;2024-03-08T13:26:14;19.80;;;15.77;;
26822;SDS011;14852;51.910;8.878;2024-03-08T13:28:50;21.33;;;16.38;;
26822;SDS011;14852;51.910;8.878;2024-03-08T13:31:21;20.85;;;16.13;;
26822;SDS011;14852;51.910;8.878;2024-03-08T13:33:48;22.75;;;16.42;;
26822;SDS011;14852;51.910;8.878;2024-03-08T13:36:14;16.45;;;14.10;;
26822;SDS011;14852;51.910;8.878;2024-03-08T13:38:44;22.15;;;15.18;;
26822;SDS011;14852;51.910;8.878;2024-03-08T13:43:42;22.75;;;15.63;;
26822;SDS011;14852;51.910;8.878;2024-03-08T13:46:10;19.48;;;14.77;;
26822;SDS011;14852;51.910;8.878;2024-03-08T13:48:36;18.08;;;13.75;;
26822;SDS011;14852;51.910;8.878;2024-03-08T13:51:06;17.00;;;12.68;;
26822;SDS011;14852;51.910;8.878;2024-03-08T13:53:33;17.42;;;14.32;;
26822;SDS011;14852;51.910;8.878;2024-03-08T13:56:02;15.80;;;12.88;;
26822;SDS011;14852;51.910;8.878;2024-03-08T13:58:28;18.48;;;14.02;;
26822;SDS011;14852;51.910;8.878;2024-03-08T14:00:54;17.75;;;13.80;;
26822;SDS011;14852;51.910;8.878;2024-03-08T14:03:20;18.55;;;13.15;;
26822;SDS011;14852;51.910;8.878;2024-03-08T14:05:46;22.92;;;17.23;;
26822;SDS011;14852;51.910;8.878;2024-03-08T14:08:12;22.15;;;15.05;;
26822;SDS011;14852;51.910;8.878;2024-03-08T14:10:39;20.20;;;16.02;;
26822;SDS011;14852;51.910;8.878;2024-03-08T14:13:05;17.92;;;14.60;;
26822;SDS011;14852;51.910;8.878;2024-03-08T14:15:32;19.48;;;14.93;;
26822;SDS011;14852;51.910;8.878;2024-03-08T14:17:59;23.70;;;16.70;;
26822;SDS011;14852;51.910;8.878;2024-03-08T14:20:26;18.85;;;14.40;;
26822;SDS011;14852;51.910;8.878;2024-03-08T14:22:52;21.38;;;15.90;;
26822;SDS011;14852;51.910;8.878;2024-03-08T14:25:21;20.73;;;16.25;;
26822;SDS011;14852;51.910;8.878;2024-03-08T14:27:53;18.60;;;14.95;;
26822;SDS011;14852;51.910;8.878;2024-03-08T14:30:23;19.58;;;15.00;;
26822;SDS011;14852;51.910;8.878;2024-03-08T14:33:00;22.00;;;16.20;;
26822;SDS011;14852;51.910;8.878;2024-03-08T14:35:34;20.42;;;15.75;;
26822;SDS011;14852;51.910;8.878;2024-03-08T14:38:01;24.45;;;18.45;;